Terminal Aerodrome Forecast
Issued by NWS

Home | Current Version | Previous Version | Text Only | Print | Product List | Glossary On
Versions: 1 2 3 4 5 6 7 8 9 10 11 12 13 14 15 16 17 18 19 20 21 22 23 24 25 26
000
FTUS42 KFFC 222046 AAA
TAFRYY
TAF AMD
KRYY 222046Z 2221/2318 11010KT 2SM -RA BR OVC004
     FM230300 09008KT 2SM -DZ BR OVC004
     FM230800 10008KT 1/2SM -DZ FG OVC002
     FM231500 11007KT 2SM -SHRA BR OVC008=

USA.gov is the U.S. government's official web portal to all federal, state and local government web resources and services.